createdAt,value
2023-01-23T00:04:02.556Z,0.09
2023-01-23T00:09:05.732Z,0.09
2023-01-23T00:14:10.795Z,0.08
2023-01-23T00:19:13.843Z,0.02
2023-01-23T00:24:16.739Z,0.02
2023-01-23T00:29:19.645Z,0.06
2023-01-23T00:34:22.557Z,0.05
2023-01-23T00:39:25.480Z,0.14
2023-01-23T00:44:28.693Z,0.27
2023-01-23T00:49:32.059Z,0.45
2023-01-23T00:54:35.146Z,0.62
2023-01-23T00:59:38.728Z,0.72
2023-01-23T01:04:41.734Z,0.77
2023-01-23T01:09:44.744Z,0.85
2023-01-23T01:14:47.807Z,0.94
2023-01-23T01:19:50.517Z,1.01
2023-01-23T01:24:53.727Z,1.07
2023-01-23T01:29:56.476Z,1.10
2023-01-23T01:34:59.482Z,1.11
2023-01-23T01:40:03.411Z,1.04
2023-01-23T01:45:07.385Z,0.98
2023-01-23T01:50:12.421Z,0.86
2023-01-23T01:55:15.570Z,0.85
2023-01-23T02:00:20.579Z,0.82
2023-01-23T02:05:31.166Z,0.85
2023-01-23T02:10:36.351Z,0.94
2023-01-23T02:15:40.334Z,1.07
2023-01-23T02:20:43.456Z,1.15
2023-01-23T02:25:53.386Z,1.31
2023-01-23T02:30:56.225Z,1.39
2023-01-23T02:36:01.981Z,1.48
2023-01-23T02:41:07.675Z,1.56
2023-01-23T02:46:11.994Z,1.65
2023-01-23T02:51:15.011Z,1.73
2023-01-23T02:56:18.542Z,1.84
2023-01-23T03:01:23.755Z,1.85
2023-01-23T03:06:26.788Z,1.94
2023-01-23T03:11:29.770Z,2.03
2023-01-23T03:16:36.553Z,2.14
2023-01-23T03:21:41.356Z,2.19
2023-01-23T03:26:47.627Z,2.38
2023-01-23T03:31:50.787Z,2.51
2023-01-23T03:36:54.025Z,2.56
2023-01-23T03:41:57.141Z,2.55
2023-01-23T03:47:00.039Z,2.51
2023-01-23T03:52:03.556Z,2.51
2023-01-23T03:57:06.986Z,2.48
2023-01-23T04:02:10.538Z,2.57
2023-01-23T04:07:14.499Z,2.63
2023-01-23T04:12:17.790Z,2.66
2023-01-23T04:17:20.706Z,2.61
2023-01-23T04:22:23.427Z,2.58
2023-01-23T04:27:26.170Z,2.54
2023-01-23T04:32:29.361Z,2.49
2023-01-23T04:37:32.261Z,2.46
2023-01-23T04:42:35.313Z,2.47
2023-01-23T04:47:38.552Z,2.47
2023-01-23T04:52:41.450Z,2.47
2023-01-23T04:57:44.307Z,2.54
2023-01-23T05:02:49.445Z,2.58
2023-01-23T05:07:52.677Z,2.56
2023-01-23T05:12:55.787Z,2.55
2023-01-23T05:17:58.915Z,2.53
2023-01-23T05:23:01.817Z,2.54
2023-01-23T05:28:04.832Z,2.49
2023-01-23T05:33:07.927Z,2.39
2023-01-23T05:38:12.538Z,2.32
2023-01-23T05:43:16.280Z,2.23
2023-01-23T05:48:19.187Z,2.17
2023-01-23T05:53:22.288Z,2.13
2023-01-23T05:58:25.208Z,2.09
2023-01-23T06:03:28.304Z,2.09
2023-01-23T06:08:31.216Z,2.14
2023-01-23T06:13:34.215Z,2.22
2023-01-23T06:18:37.181Z,2.30
2023-01-23T06:23:39.959Z,2.33
2023-01-23T06:28:42.884Z,2.36
2023-01-23T06:33:53.271Z,2.36
2023-01-23T06:38:57.500Z,2.34
2023-01-23T06:44:00.553Z,2.32
2023-01-23T06:49:06.283Z,2.33
2023-01-23T06:54:09.368Z,2.43
2023-01-23T06:59:12.478Z,2.52
2023-01-23T07:04:15.906Z,2.61
2023-01-23T07:09:18.968Z,2.70
2023-01-23T07:14:22.265Z,2.81
2023-01-23T07:19:25.471Z,2.92
2023-01-23T07:24:32.557Z,3.11
2023-01-23T07:29:35.474Z,3.37
2023-01-23T07:34:38.648Z,3.57
2023-01-23T07:39:41.355Z,3.78
2023-01-23T07:44:45.387Z,3.96
2023-01-23T07:49:48.548Z,4.18
2023-01-23T07:54:51.476Z,4.57
2023-01-23T07:59:54.446Z,4.84
2023-01-23T08:04:57.521Z,5.14
2023-01-23T08:10:00.650Z,5.42
2023-01-23T08:15:03.988Z,5.99
2023-01-23T08:20:07.644Z,6.53
2023-01-23T08:25:11.461Z,6.98
2023-01-23T08:30:14.758Z,7.31
2023-01-23T08:35:17.872Z,7.45
2023-01-23T08:40:20.878Z,7.50
2023-01-23T08:45:25.520Z,7.71
2023-01-23T08:50:28.685Z,8.05
2023-01-23T08:55:33.103Z,8.49
2023-01-23T09:00:36.254Z,8.88
2023-01-23T09:05:39.632Z,9.09
2023-01-23T09:10:43.098Z,9.08
2023-01-23T09:15:46.851Z,9.02
2023-01-23T09:20:49.952Z,8.83
2023-01-23T09:25:52.953Z,8.61
2023-01-23T09:30:55.820Z,8.47
2023-01-23T09:35:58.868Z,8.39
2023-01-23T09:41:17.611Z,8.25
2023-01-23T09:46:33.238Z,8.17
2023-01-23T09:51:45.479Z,8.15
2023-01-23T09:56:50.380Z,8.26
2023-01-23T10:01:53.281Z,8.45
2023-01-23T10:07:49.625Z,8.62
2023-01-23T10:13:16.504Z,8.70
2023-01-23T10:18:59.099Z,8.79
2023-01-23T10:24:13.297Z,8.99
2023-01-23T10:29:43.992Z,9.42
2023-01-23T10:35:05.787Z,10.14
2023-01-23T10:40:40.245Z,10.82
2023-01-23T10:45:45.215Z,11.07
2023-01-23T10:50:57.206Z,10.97
2023-01-23T10:56:01.088Z,10.96
2023-01-23T11:01:06.160Z,11.34
2023-01-23T11:06:18.024Z,11.92
2023-01-23T11:11:32.526Z,12.18
2023-01-23T11:16:36.407Z,12.37
2023-01-23T11:21:50.926Z,12.28
2023-01-23T11:27:14.839Z,11.88
2023-01-23T11:32:17.971Z,11.49
2023-01-23T11:37:38.964Z,11.10
2023-01-23T11:42:43.430Z,10.76
2023-01-23T11:48:04.726Z,10.55
2023-01-23T11:53:48.593Z,10.35
2023-01-23T11:59:19.642Z,10.19
2023-01-23T12:04:43.378Z,10.09
2023-01-23T12:09:58.258Z,10.01
2023-01-23T12:16:01.780Z,9.90
2023-01-23T12:21:26.166Z,9.80
2023-01-23T12:26:31.513Z,9.74
2023-01-23T12:32:01.425Z,9.70
2023-01-23T12:37:30.776Z,9.68
2023-01-23T12:43:04.647Z,9.69
2023-01-23T12:48:24.392Z,9.69
2023-01-23T12:53:32.957Z,9.69
2023-01-23T12:58:41.815Z,9.70
2023-01-23T13:04:12.796Z,9.67
2023-01-23T13:10:02.524Z,9.60
2023-01-23T13:15:22.558Z,9.53
2023-01-23T13:21:11.339Z,9.46
2023-01-23T13:26:19.576Z,9.42
2023-01-23T13:31:34.812Z,9.38
2023-01-23T13:36:38.251Z,9.35
2023-01-23T13:41:41.430Z,9.36
2023-01-23T14:20:27.884Z,8.70
2023-01-23T14:25:31.702Z,8.59
2023-01-23T14:30:34.687Z,8.50
2023-01-23T14:35:40.162Z,8.38
2023-01-23T14:40:50.629Z,8.28
2023-01-23T14:46:21.056Z,8.16
2023-01-23T14:51:27.276Z,8.02
2023-01-23T14:56:36.845Z,7.89
2023-01-23T15:01:39.898Z,7.77
2023-01-23T15:06:42.866Z,7.66
2023-01-23T15:11:47.683Z,7.56
2023-01-23T15:16:52.281Z,7.43
2023-01-23T15:22:18.024Z,7.31
2023-01-23T15:27:24.695Z,7.17
2023-01-23T15:32:27.763Z,7.05
2023-01-23T15:37:30.811Z,6.85
2023-01-23T15:42:35.352Z,6.65
2023-01-23T15:47:38.552Z,6.49
2023-01-23T15:52:50.971Z,6.30
2023-01-23T15:57:55.429Z,6.19
2023-01-23T16:02:59.777Z,6.07
2023-01-23T16:08:04.466Z,6.00
2023-01-23T16:13:08.093Z,5.94
2023-01-23T16:18:10.966Z,5.84
2023-01-23T16:23:24.761Z,5.75
2023-01-23T16:28:27.733Z,5.64
2023-01-23T16:33:30.789Z,5.55
2023-01-23T16:38:33.860Z,5.46
2023-01-23T16:43:37.163Z,5.40
2023-01-23T16:48:40.442Z,5.35
2023-01-23T16:53:49.665Z,5.26
2023-01-23T16:58:52.793Z,5.18
2023-01-23T17:04:00.144Z,5.13
2023-01-23T17:09:03.129Z,5.13
2023-01-23T17:14:25.079Z,5.16
2023-01-23T17:19:36.587Z,5.15
2023-01-23T17:24:39.482Z,5.15
2023-01-23T17:29:42.551Z,5.14
2023-01-23T17:34:50.227Z,5.13
2023-01-23T17:39:53.598Z,5.11
2023-01-23T17:44:56.678Z,5.12
2023-01-23T17:50:01.162Z,5.12
2023-01-23T17:55:05.470Z,5.07
2023-01-23T18:00:12.295Z,5.01
2023-01-23T18:05:15.943Z,4.93
2023-01-23T18:10:21.161Z,4.83
2023-01-23T18:15:39.977Z,4.77
2023-01-23T18:20:43.380Z,4.78
2023-01-23T18:25:46.835Z,4.79
2023-01-23T18:31:09.515Z,4.79
2023-01-23T18:36:53.557Z,4.86
2023-01-23T18:42:23.927Z,4.90
2023-01-23T18:47:27.655Z,4.89
2023-01-23T18:52:51.954Z,4.88
2023-01-23T18:58:25.821Z,4.83
2023-01-23T19:03:43.032Z,4.78
2023-01-23T19:08:48.259Z,4.72
2023-01-23T19:14:20.901Z,4.70
2023-01-23T19:19:47.532Z,4.66
2023-01-23T19:24:50.688Z,4.65
2023-01-23T19:29:53.872Z,4.63
2023-01-23T19:35:02.722Z,4.62
2023-01-23T19:40:16.896Z,4.64
2023-01-23T19:45:20.926Z,4.62
2023-01-23T19:50:24.114Z,4.62
2023-01-23T19:55:30.777Z,4.59
2023-01-23T20:00:38.438Z,4.52
2023-01-23T20:05:41.390Z,4.42
2023-01-23T20:10:44.431Z,4.31
2023-01-23T20:15:50.446Z,4.23
2023-01-23T20:20:59.825Z,4.14
2023-01-23T20:26:02.905Z,4.05
2023-01-23T20:31:12.415Z,3.96
2023-01-23T20:36:16.494Z,3.90
2023-01-23T20:41:20.848Z,3.85
2023-01-23T20:46:23.817Z,3.76
2023-01-23T20:51:27.429Z,3.67
2023-01-23T20:56:30.440Z,3.60
2023-01-23T21:01:55.413Z,3.52
2023-01-23T21:06:59.808Z,3.43
2023-01-23T21:12:03.147Z,3.35
2023-01-23T21:17:06.687Z,3.29
2023-01-23T21:22:10.306Z,3.22
2023-01-23T21:27:13.942Z,3.13
2023-01-23T21:32:16.912Z,3.07
2023-01-23T21:37:20.252Z,3.01
2023-01-23T21:42:23.296Z,2.93
2023-01-23T21:47:26.201Z,2.86
2023-01-23T21:52:30.036Z,2.78
2023-01-23T21:57:32.816Z,2.68
2023-01-23T22:02:35.714Z,2.57
2023-01-23T22:07:38.711Z,2.47
2023-01-23T22:12:41.750Z,2.36
2023-01-23T22:17:45.736Z,2.25
2023-01-23T22:22:48.832Z,2.14
2023-01-23T22:27:52.137Z,2.07
2023-01-23T22:32:55.969Z,1.98
2023-01-23T22:37:58.827Z,1.92
2023-01-23T22:43:02.925Z,1.85
2023-01-23T22:48:06.422Z,1.79
2023-01-23T22:53:09.341Z,1.75
2023-01-23T22:58:12.482Z,1.69
2023-01-23T23:03:15.392Z,1.67
2023-01-23T23:08:18.271Z,1.65
2023-01-23T23:13:21.297Z,1.63
2023-01-23T23:18:24.300Z,1.59
2023-01-23T23:23:28.783Z,1.57
2023-01-23T23:28:33.125Z,1.54
2023-01-23T23:33:36.805Z,1.54
2023-01-23T23:38:39.682Z,1.50
2023-01-23T23:43:44.031Z,1.50
2023-01-23T23:48:48.193Z,1.46
2023-01-23T23:53:51.121Z,1.45
2023-01-23T23:58:55.872Z,1.42
